Latest Conditions
At L.F.Wade Int. Airport
Recorded at 5:55 pm
Overcast
Temp.: 
18°C/65°F
Humidity: 
63%
Wind: 
WSW 7KT
or 8mph
Island Observations
 
Observations
Friday, February 28, 2020

Observations are in local time and taken at least once an hour, or upon the start and end of specified events such as showers and thunderstorms.

Time Sky / Weather Wind Speed/Gusts Temp. R.H. Pressure
     knots (mph)  °C (°F)  %  mb / "Hg
 17:55 Overcast  WSW 7/0 (8/0) 18(65) 63 1017 / 30.02
 16:55 Overcast  SW 7/0 (8/0) 19(65) 61 1016 / 30.01
 15:55 Overcast  WSW 6/0 (7/0) 19(65) 61 1016 / 30.00
 14:55 Overcast  SW 3/0 (3/0) 19(66) 59 1016 / 30.01
 13:55 Overcast  WSW 3/0 (3/0) 19(66) 62 1017 / 30.02
 12:55 Overcast  NW 4/0 (5/0) 18(65) 61 1017 / 30.04
 11:55 Mostly Cloudy  N 3/0 (3/0) 19(66) 60 1017 / 30.04
 10:55 Mostly Cloudy  NW 4/0 (5/0) 19(66) 60 1018 / 30.06
 09:55 Mostly Cloudy  NNW 4/0 (5/0) 19(66) 60 1018 / 30.05
 08:55 Mostly Cloudy  NW 5/0 (6/0) 18(65) 61 1018 / 30.05
 07:55 Mostly Cloudy  NNW 7/0 (8/0) 18(64) 65 1017 / 30.04
 06:55 Mostly Cloudy  NNW 9/0 (10/0) 18(64) 71 1017 / 30.03
 05:55 Overcast  NNW 9/0 (10/0) 18(64) 71 1017 / 30.02
 04:55 Overcast  NW 8/0 (9/0) 18(65) 73 1016 / 30.00
 04:18 Overcast  NW 9/0 (10/0) 18(64) 79 1016 / 29.99
 03:55 Overcast  NW 11/0 (13/0) 18(64) 83 1016 / 29.99
 02:55 Overcast  NW 12/0 (14/0) 18(64) 83 1016 / 29.99
 02:37 Overcast  WNW 12/0 (14/0) 18(64) 88 1016 / 29.99
 01:55 Overcast Rain NW 12/0 (14/0) 18(64) 88 1016 / 29.99
 01:23 Overcast Rain NNW 10/0 (12/0) 18(64) 91 1016 / 29.99
 00:55 Overcast  NNW 12/0 (14/0) 18(64) 90 1016 / 29.99
 00:45 Overcast Rain NNW 12/0 (14/0) 18(64) 91 1016 / 29.99
 00:35 Overcast Rain NW 11/0 (13/0) 18(64) 94 1016 / 29.99
 23:55 Overcast Rain NW 16/0 (18/0) 18(65) 94 1015 / 29.98
 23:43 Overcast Rain WNW 19/0 (22/0) 18(65) 94 1016 / 29.99
 22:55 Overcast Rain WSW 14/0 (16/0) 19(67) 94 1015 / 29.98
 22:32 Overcast Rain WSW 16/0 (18/0) 19(66) 94 1015 / 29.98
 22:04 Overcast Rain WSW 16/0 (18/0) 19(66) 95 1015 / 29.98
 21:55 Overcast Rain SW 20/0 (23/0) 20(69) 89 1015 / 29.97
 21:42 Overcast Rain SW 18/0 (21/0) 20(69) 89 1015 / 29.97
 21:30 Overcast  SW 21/0 (24/0) 21(69) 87 1015 / 29.96
 21:07 Overcast Rain SW 20/0 (23/0) 20(69) 91 1015 / 29.96
 20:55 Overcast  SSW 22/0 (25/0) 20(69) 90 1015 / 29.96
 20:41 Overcast Rain SW 22/0 (25/0) 20(69) 93 1014 / 29.95
 20:23 Overcast  SSW 22/0 (25/0) 20(68) 94 1015 / 29.96
 20:17 Overcast Showers SSW 22/0 (25/0) 21(69) 92 1015 / 29.96
 19:55 Overcast Showers SSW 25/0 (29/0) 21(69) 90 1014 / 29.95
 19:47 Overcast Showers SSW 25/0 (29/0) 21(69) 90 1014 / 29.95
 19:39 Overcast Showers SSW 23/0 (26/0) 21(70) 88 1014 / 29.95
 19:19 Overcast Showers SW 21/0 (24/0) 21(70) 88 1014 / 29.95
 19:08 Overcast Showers NE 17/0 (20/0) 18(64) 54 1014 / 29.95
 18:55 Overcast Showers SSW 22/0 (25/0) 21(70) 88 1014 / 29.95
 17:55 Mostly Cloudy  SSW 22/0 (25/0) 21(70) 86 1014 / 29.94
 16:55 Mostly Cloudy Showers SSW 22/0 (25/0) 22(71) 83 1014 / 29.94
 15:55 Mostly Cloudy  SSW 22/0 (25/0) 22(71) 80 1014 / 29.94
 14:55 Mostly Cloudy  SSW 25/0 (29/0) 22(72) 78 1014 / 29.94
 13:55 Mostly Cloudy  SSW 23/0 (26/0) 22(71) 79 1015 / 29.96
 12:55 Mostly Cloudy  SSW 22/0 (25/0) 22(71) 79 1016 / 29.99
 11:55 Mostly Cloudy  SSW 22/0 (25/0) 21(70) 80 1016 / 30.01
 10:55 Mostly Cloudy  SSW 21/0 (24/0) 21(70) 80 1017 / 30.03
 09:55 Mostly Cloudy  SSW 22/0 (25/0) 21(71) 80 1017 / 30.03
 08:55 Mostly Cloudy  SSW 21/0 (24/0) 20(69) 83 1017 / 30.03
 07:55 Mostly Cloudy  SSW 19/0 (22/0) 20(69) 83 1017 / 30.02
 06:55 Mostly Cloudy  SSW 20/0 (23/0) 20(68) 83 1017 / 30.02
 05:55 Mostly Cloudy  SSW 18/0 (21/0) 20(68) 85 1017 / 30.02
 04:55 Mostly Cloudy  SSW 18/0 (21/0) 20(68) 81 1016 / 30.01
 03:55 Mostly Cloudy  SSW 16/0 (18/0) 20(68) 81 1017 / 30.02
 02:55 Mostly Cloudy  SSW 15/0 (17/0) 20(67) 82 1018 / 30.05
 01:55 Partly Cloudy  SSW 16/0 (18/0) 20(67) 82 1018 / 30.07
 00:55 Mostly Cloudy  SSW 16/0 (18/0) 20(67) 81 1019 / 30.08
 23:55 Mostly Cloudy  SW 14/0 (16/0) 20(67) 81 1019 / 30.09
 22:55 Mostly Cloudy  SW 14/0 (16/0) 20(68) 81 1019 / 30.10
 21:55 Mostly Cloudy  SSW 14/0 (16/0) 20(67) 83 1019 / 30.10
 20:55 Partly Cloudy  SW 11/0 (13/0) 20(67) 79 1020 / 30.12
 19:55 Partly Cloudy  SW 11/0 (13/0) 20(67) 79 1020 / 30.11
 18:55 Mostly Cloudy  SSW 15/0 (17/0) 20(68) 77 1019 / 30.10
 17:55 Mostly Cloudy  SSW 15/0 (17/0) 20(69) 75 1019 / 30.10
 16:55 Mostly Cloudy  SW 15/0 (17/0) 21(70) 72 1019 / 30.09
 15:55 Mostly Cloudy  SW 15/0 (17/0) 21(71) 70 1019 / 30.09
 14:55 Mostly Cloudy  SSW 17/0 (20/0) 22(71) 70 1019 / 30.09
 13:55 Mostly Cloudy  SSW 16/0 (18/0) 21(70) 71 1020 / 30.11
 12:55 Mostly Cloudy  SW 16/0 (18/0) 22(71) 68 1020 / 30.13
 11:55 Mostly Cloudy  SW 17/0 (20/0) 22(71) 67 1021 / 30.15
 10:55 Mostly Cloudy  SW 16/0 (18/0) 21(70) 69 1022 / 30.17
 09:55 Mostly Cloudy  SW 15/0 (17/0) 21(70) 69 1022 / 30.17
 08:55 Mostly Cloudy  SW 15/0 (17/0) 20(67) 72 1022 / 30.17
 07:55 Mostly Cloudy  SW 13/0 (15/0) 20(67) 72 1021 / 30.16
 06:55 Mostly Cloudy  SW 15/0 (17/0) 19(66) 74 1021 / 30.14
 05:55 Mostly Cloudy  SW 10/0 (12/0) 19(65) 72 1020 / 30.13
 04:55 Mostly Cloudy  SW 9/0 (10/0) 19(65) 72 1021 / 30.14
 03:55 Partly Cloudy  SW 10/0 (12/0) 19(65) 69 1021 / 30.14
 02:55 Partly Cloudy  SSW 12/0 (14/0) 19(66) 67 1020 / 30.13
 01:55 Partly Cloudy  SSW 10/0 (12/0) 18(65) 69 1021 / 30.15
 00:55 Few Clouds  SW 9/0 (10/0) 18(65) 63 1021 / 30.16
 23:55 Partly Cloudy  SW 8/0 (9/0) 18(65) 63 1022 / 30.18
 22:55 Partly Cloudy  SW 10/0 (12/0) 19(66) 63 1023 / 30.20
 21:55 Mostly Cloudy  SSW 9/0 (10/0) 19(66) 63 1023 / 30.21
 20:55 Partly Cloudy  SSW 8/0 (9/0) 18(65) 63 1023 / 30.22
 19:55 Mostly Cloudy  SSW 9/0 (10/0) 19(66) 60 1023 / 30.21
 18:55 Partly Cloudy  S 8/0 (9/0) 19(66) 58 1023 / 30.21
 17:55 Mostly Cloudy  S 8/0 (9/0) 20(67) 56 1023 / 30.20
 16:55 Mostly Cloudy  SSW 7/0 (8/0) 20(67) 56 1022 / 30.19
 15:55 Mostly Cloudy  SE 9/0 (10/0) 20(67) 55 1022 / 30.19
 14:55 Partly Cloudy  SE 9/0 (10/0) 19(66) 54 1023 / 30.20
 13:55 Mostly Cloudy  SSE 6/0 (7/0) 19(66) 54 1024 / 30.23
 12:55 Few Clouds  SSE 8/0 (9/0) 19(67) 52 1024 / 30.24
 11:55 Few Clouds  S 7/0 (8/0) 19(66) 48 1025 / 30.26
 10:55 Few Clouds  S 7/0 (8/0) 19(66) 44 1025 / 30.26
 09:55 Few Clouds  S 7/0 (8/0) 18(65) 46 1025 / 30.26
 08:55 Few Clouds  SSE 6/0 (7/0) 18(64) 44 1024 / 30.25
Island AWOS